Terminal Aerodrome Forecast
Issued by NWS

Home | Current Version | Previous Version | Graphics & Text | Print | Product List | Glossary On
Versions: 1 2 3 4 5 6 7 8 9 10 11 12 13 14 15 16 17 18 19 20 21 22 23 24
000
FTUS42 KMHX 302349
TAFOAJ
TAF
KOAJ 302349Z 3100/3124 20003KT P6SM VCSH BKN050 OVC100
     FM310500 04003KT 5SM -RA BR OVC015
     FM311400 12007KT P6SM -SHRA BKN025
     FM311800 15005KT P6SM VCSH OVC035
      AMD LTD TO CLD VIS AND WIND=

USA.gov is the U.S. government's official web portal to all federal, state and local government web resources and services.